Time;durP1;ratioP1;P1;durP2;ratioP2;P2;SDS_P1;SDS_P2;PMS_P1;PMS_P2;Temp;Humidity;BMP_temperature;BMP_pressure;BME280_temperature;BME280_humidity;BME280_pressure;Samples;Min_cycle;Max_cycle;Signal;HPM_P1;HPM_P2
2022/06/25 00:01:34;;;;;;;0.63;0.50;;;16.20;99.90;;;;;;5076802;28;20461;-75
2022/06/25 00:04:00;;;;;;;0.60;0.40;;;16.20;99.90;;;;;;5074788;28;20541;-74
2022/06/25 00:06:28;;;;;;;0.70;0.40;;;16.20;99.90;;;;;;5077124;28;20450;-75
2022/06/25 00:08:55;;;;;;;1.07;0.40;;;16.20;99.90;;;;;;5076864;28;20447;-74
2022/06/25 00:14:08;;;;;;;0.70;0.50;;;16.20;99.90;;;;;;5076718;28;20473;-74
2022/06/25 00:16:37;;;;;;;2.20;0.40;;;16.10;99.90;;;;;;5078653;28;20466;-75
2022/06/25 00:19:04;;;;;;;1.37;0.40;;;16.10;99.90;;;;;;5076678;28;20450;-74
2022/06/25 00:21:32;;;;;;;0.87;0.50;;;16.20;99.90;;;;;;5076958;28;20458;-75
2022/06/25 00:23:59;;;;;;;0.90;0.50;;;16.20;99.90;;;;;;5077395;28;20889;-74
2022/06/25 00:26:28;;;;;;;0.70;0.50;;;16.10;99.90;;;;;;5077713;28;20454;-75
2022/06/25 00:28:55;;;;;;;0.50;0.40;;;16.20;99.90;;;;;;5078365;28;20450;-74
2022/06/25 00:31:22;;;;;;;0.60;0.50;;;16.10;99.90;;;;;;5077677;28;20935;-75
2022/06/25 00:33:51;;;;;;;1.30;0.60;;;16.10;99.90;;;;;;5076321;28;20851;-74
2022/06/25 00:36:18;;;;;;;1.07;0.50;;;16.10;99.90;;;;;;5077649;28;20446;-74
2022/06/25 00:38:45;;;;;;;0.60;0.50;;;16.10;99.90;;;;;;5077963;28;20446;-75
2022/06/25 00:41:13;;;;;;;0.60;0.40;;;16.10;99.90;;;;;;5077522;28;20815;-74
2022/06/25 00:43:40;;;;;;;0.57;0.40;;;16.10;99.90;;;;;;5077594;28;20500;-74
2022/06/25 00:46:08;;;;;;;0.80;0.50;;;16.10;99.90;;;;;;5077736;28;20516;-75
2022/06/25 00:48:35;;;;;;;0.50;0.40;;;16.10;99.90;;;;;;5077387;28;20480;-75
2022/06/25 00:51:10;;;;;;;0.80;0.60;;;16.10;99.90;;;;;;5077700;28;20466;-75
2022/06/25 00:53:40;;;;;;;0.70;0.50;;;16.10;99.90;;;;;;5076580;28;20486;-75
2022/06/25 00:56:09;;;;;;;0.60;0.50;;;16.10;99.90;;;;;;5076125;28;20458;-74
2022/06/25 00:58:39;;;;;;;0.53;0.40;;;16.00;99.90;;;;;;5075159;28;20876;-77
2022/06/25 01:01:08;;;;;;;0.50;0.40;;;16.00;99.90;;;;;;5075011;28;20515;-77
2022/06/25 01:03:35;;;;;;;0.60;0.40;;;15.90;99.90;;;;;;5075531;28;20457;-75
2022/06/25 01:06:04;;;;;;;0.50;0.40;;;16.00;99.90;;;;;;5076137;28;20462;-76
2022/06/25 01:08:32;;;;;;;0.90;0.40;;;16.00;99.90;;;;;;5080182;28;20541;-75
2022/06/25 01:10:59;;;;;;;0.70;0.50;;;15.90;99.90;;;;;;5076802;28;20466;-77
2022/06/25 01:13:27;;;;;;;0.70;0.50;;;15.90;99.90;;;;;;5076594;28;20486;-76
2022/06/25 01:15:54;;;;;;;0.60;0.40;;;15.90;99.90;;;;;;5076605;28;20454;-75
2022/06/25 01:18:21;;;;;;;0.53;0.40;;;15.90;99.90;;;;;;5077114;28;20454;-76
2022/06/25 01:20:48;;;;;;;0.50;0.40;;;15.90;99.90;;;;;;5077221;28;20454;-76
2022/06/25 01:23:16;;;;;;;0.70;0.50;;;15.80;99.90;;;;;;5076917;28;20446;-75
2022/06/25 01:25:44;;;;;;;0.53;0.50;;;15.80;99.90;;;;;;5093887;28;20452;-76
2022/06/25 01:28:11;;;;;;;1.67;0.50;;;15.80;99.90;;;;;;5095317;28;20453;-77
2022/06/25 01:30:39;;;;;;;0.67;0.40;;;15.80;99.90;;;;;;5094338;28;20445;-75
2022/06/25 01:33:07;;;;;;;0.60;0.40;;;15.80;99.90;;;;;;5076034;28;20478;-76
2022/06/25 01:35:35;;;;;;;0.60;0.50;;;15.70;99.90;;;;;;5075469;28;20471;-76
2022/06/25 01:38:02;;;;;;;0.70;0.43;;;15.70;99.90;;;;;;5075557;28;20450;-76
2022/06/25 01:40:31;;;;;;;0.50;0.40;;;15.70;99.90;;;;;;5080044;28;20463;-75
2022/06/25 01:43:01;;;;;;;0.63;0.50;;;15.70;99.90;;;;;;5117003;28;20495;-76
2022/06/25 01:45:30;;;;;;;0.50;0.33;;;15.70;99.90;;;;;;5116617;28;20433;-76
2022/06/25 01:47:57;;;;;;;0.60;0.40;;;15.70;99.90;;;;;;5116996;28;20884;-76
2022/06/25 01:50:25;;;;;;;0.83;0.60;;;15.70;99.90;;;;;;5089495;28;20462;-76
2022/06/25 01:52:52;;;;;;;2.10;0.60;;;15.70;99.90;;;;;;5095391;28;20457;-76
2022/06/25 01:55:22;;;;;;;3.83;0.40;;;15.70;99.90;;;;;;5091453;28;20496;-76
2022/06/25 01:57:51;;;;;;;0.60;0.40;;;15.70;99.90;;;;;;5095044;28;20466;-76
2022/06/25 02:00:21;;;;;;;0.90;0.40;;;15.60;99.90;;;;;;5095532;28;20437;-74
2022/06/25 02:02:48;;;;;;;0.57;0.40;;;15.70;99.90;;;;;;5096178;28;20460;-75
2022/06/25 02:05:56;;;;;;;0.57;0.40;;;15.70;99.90;;;;;;5095417;28;20449;-75
2022/06/25 02:08:06;;;;;;;0.83;0.50;;;15.60;99.90;;;;;;5085802;28;20431;-75
2022/06/25 02:10:33;;;;;;;0.97;0.40;;;15.60;99.90;;;;;;5079843;28;20440;-75
2022/06/25 02:13:02;;;;;;;0.60;0.50;;;15.60;99.90;;;;;;5095331;28;20456;-75
2022/06/25 02:15:29;;;;;;;0.60;0.50;;;15.60;99.90;;;;;;5088996;28;20489;-75
2022/06/25 02:17:56;;;;;;;1.90;0.40;;;15.60;99.90;;;;;;5075961;28;20474;-75
2022/06/25 02:20:23;;;;;;;0.70;0.40;;;15.60;99.90;;;;;;5075950;28;20446;-75
2022/06/25 02:22:50;;;;;;;0.60;0.40;;;15.60;99.90;;;;;;5076132;28;20508;-75
2022/06/25 02:25:18;;;;;;;0.80;0.40;;;15.60;99.90;;;;;;5075862;28;20812;-74
2022/06/25 02:27:45;;;;;;;0.60;0.50;;;15.60;99.90;;;;;;5078534;28;20454;-74
2022/06/25 02:30:14;;;;;;;0.60;0.40;;;15.60;99.90;;;;;;5080334;28;20461;-75
2022/06/25 02:32:41;;;;;;;0.60;0.50;;;15.60;99.90;;;;;;5078926;28;20461;-75
2022/06/25 02:35:09;;;;;;;0.70;0.50;;;15.50;99.90;;;;;;5079633;28;20482;-75
2022/06/25 02:37:36;;;;;;;0.60;0.43;;;15.60;99.90;;;;;;5080179;28;20512;-75
2022/06/25 02:40:04;;;;;;;0.70;0.40;;;15.50;99.90;;;;;;5080057;28;20446;-75
2022/06/25 02:42:34;;;;;;;0.60;0.40;;;15.50;99.90;;;;;;5079564;28;20485;-75
2022/06/25 02:45:02;;;;;;;0.77;0.50;;;15.50;99.90;;;;;;5079255;28;20453;-75
2022/06/25 02:47:30;;;;;;;0.40;0.30;;;15.50;99.90;;;;;;5080298;28;20458;-75
2022/06/25 02:49:57;;;;;;;0.60;0.40;;;15.50;99.90;;;;;;5089886;28;20856;-75
2022/06/25 02:52:25;;;;;;;1.37;0.40;;;15.40;99.90;;;;;;5099825;28;20457;-75
2022/06/25 02:54:52;;;;;;;0.60;0.43;;;15.50;99.90;;;;;;5100588;28;20838;-75
2022/06/25 03:00:04;;;;;;;0.60;0.40;;;15.50;99.90;;;;;;5110887;28;20514;-75
2022/06/25 03:02:33;;;;;;;0.67;0.43;;;15.50;99.90;;;;;;5121789;28;20860;-75
2022/06/25 03:05:01;;;;;;;0.60;0.40;;;15.50;99.90;;;;;;5120691;28;20449;-75
2022/06/25 03:07:28;;;;;;;0.50;0.40;;;15.50;99.90;;;;;;5109221;28;20477;-75
2022/06/25 03:09:55;;;;;;;0.63;0.47;;;15.50;99.90;;;;;;5093721;28;20510;-74
2022/06/25 03:12:22;;;;;;;0.70;0.50;;;15.50;99.90;;;;;;5099356;28;20457;-74
2022/06/25 03:14:49;;;;;;;0.83;0.40;;;15.40;99.90;;;;;;5098145;28;20565;-75
2022/06/25 03:17:16;;;;;;;1.47;0.50;;;15.40;99.90;;;;;;5100023;28;20465;-74
2022/06/25 03:19:44;;;;;;;0.50;0.40;;;15.40;99.90;;;;;;5119431;28;20868;-75
2022/06/25 03:22:11;;;;;;;0.60;0.40;;;15.40;99.90;;;;;;5120296;28;20459;-75
2022/06/25 03:24:39;;;;;;;0.60;0.40;;;15.40;99.90;;;;;;5120507;28;20797;-74
2022/06/25 03:27:06;;;;;;;0.67;0.40;;;15.30;99.90;;;;;;5084360;28;20967;-75
2022/06/25 03:29:33;;;;;;;0.97;0.40;;;15.30;99.90;;;;;;5098275;28;20472;-75
2022/06/25 03:32:00;;;;;;;0.77;0.33;;;15.30;99.90;;;;;;5090769;28;20442;-75
2022/06/25 03:34:28;;;;;;;0.50;0.40;;;15.30;99.90;;;;;;5078330;28;21108;-74
2022/06/25 03:36:56;;;;;;;0.70;0.40;;;15.30;99.90;;;;;;5078550;28;21015;-75
2022/06/25 03:39:23;;;;;;;0.73;0.43;;;15.30;99.90;;;;;;5078432;28;20901;-75
2022/06/25 03:41:50;;;;;;;0.60;0.40;;;15.30;99.90;;;;;;5078144;28;20454;-75
2022/06/25 03:44:17;;;;;;;2.10;0.50;;;15.30;99.90;;;;;;5077679;28;20449;-74
2022/06/25 03:46:44;;;;;;;0.60;0.50;;;15.30;99.90;;;;;;5077507;28;20784;-73
2022/06/25 03:49:11;;;;;;;0.60;0.40;;;15.30;99.90;;;;;;5076778;28;20446;-73
2022/06/25 03:51:38;;;;;;;0.60;0.40;;;15.50;99.90;;;;;;5077074;28;20878;-73
2022/06/25 03:54:07;;;;;;;0.70;0.40;;;15.40;99.90;;;;;;5077422;28;20543;-72
2022/06/25 03:56:34;;;;;;;1.00;0.50;;;15.40;99.90;;;;;;5076148;28;20870;-75
2022/06/25 03:59:01;;;;;;;0.80;0.50;;;15.40;99.90;;;;;;5077109;28;20719;-76
2022/06/25 04:01:31;;;;;;;0.73;0.50;;;15.40;99.90;;;;;;5077357;28;20462;-75
2022/06/25 04:03:59;;;;;;;0.53;0.33;;;15.40;99.90;;;;;;5076782;28;20434;-76
2022/06/25 04:06:26;;;;;;;0.80;0.40;;;15.50;99.90;;;;;;5077285;28;20465;-75
2022/06/25 04:08:53;;;;;;;0.80;0.43;;;15.50;99.90;;;;;;5078708;28;20441;-76
2022/06/25 04:11:22;;;;;;;0.40;0.40;;;15.60;99.90;;;;;;5078905;28;20503;-76
2022/06/25 04:13:49;;;;;;;0.37;0.30;;;15.70;99.90;;;;;;5077373;28;20482;-76
2022/06/25 04:16:16;;;;;;;0.60;0.40;;;15.70;99.90;;;;;;5077456;28;20466;-76
2022/06/25 04:18:43;;;;;;;0.70;0.40;;;15.70;99.90;;;;;;5078043;28;20453;-76
2022/06/25 04:21:10;;;;;;;0.60;0.30;;;15.60;99.90;;;;;;5078325;28;20466;-76
2022/06/25 04:23:37;;;;;;;0.60;0.33;;;15.70;99.90;;;;;;5078719;28;20877;-75
2022/06/25 04:26:04;;;;;;;0.70;0.50;;;15.70;99.90;;;;;;5097534;28;20465;-75
2022/06/25 04:31:17;;;;;;;0.77;0.50;;;15.80;99.90;;;;;;5098261;28;20468;-75
2022/06/25 04:33:44;;;;;;;0.50;0.30;;;15.80;99.90;;;;;;5118615;28;20445;-75
2022/06/25 04:36:11;;;;;;;0.70;0.40;;;15.80;99.90;;;;;;5118285;28;20923;-74
2022/06/25 04:38:38;;;;;;;0.60;0.40;;;15.90;99.90;;;;;;5118257;28;20891;-75
2022/06/25 04:41:05;;;;;;;1.03;0.30;;;15.90;99.90;;;;;;5108883;28;20472;-74
2022/06/25 04:43:34;;;;;;;0.50;0.37;;;16.00;99.90;;;;;;5118379;28;20718;-74
2022/06/25 04:46:01;;;;;;;0.80;0.40;;;16.10;99.90;;;;;;5117843;28;20449;-74
2022/06/25 04:48:28;;;;;;;0.40;0.30;;;16.10;99.90;;;;;;5111664;28;20463;-74
2022/06/25 04:50:55;;;;;;;0.47;0.30;;;16.20;99.90;;;;;;5088063;28;20865;-76
2022/06/25 04:53:22;;;;;;;0.70;0.40;;;16.30;99.90;;;;;;5075495;28;20806;-74
2022/06/25 04:55:49;;;;;;;0.50;0.30;;;16.40;99.90;;;;;;5076585;28;20489;-75
2022/06/25 04:58:17;;;;;;;0.60;0.43;;;16.40;99.90;;;;;;5077511;28;20897;-74
2022/06/25 05:00:46;;;;;;;0.40;0.30;;;16.50;99.90;;;;;;5078028;28;20454;-74
2022/06/25 05:03:13;;;;;;;0.50;0.30;;;16.70;99.90;;;;;;5077996;28;20454;-74
2022/06/25 05:05:41;;;;;;;0.90;0.30;;;16.70;99.90;;;;;;5077895;28;20553;-74
2022/06/25 05:08:09;;;;;;;0.50;0.30;;;16.60;99.90;;;;;;5092749;28;20499;-75
2022/06/25 05:10:37;;;;;;;1.80;0.40;;;16.60;99.90;;;;;;5097855;28;20794;-75
2022/06/25 05:13:13;;;;;;;0.50;0.30;;;16.60;99.90;;;;;;5104949;28;20449;-74
2022/06/25 05:15:41;;;;;;;0.60;0.40;;;16.60;99.90;;;;;;5099339;28;20523;-74
2022/06/25 05:18:10;;;;;;;0.70;0.37;;;16.60;99.90;;;;;;5097986;28;20818;-74
2022/06/25 05:20:39;;;;;;;1.27;0.40;;;16.60;99.90;;;;;;5088323;28;20454;-73
2022/06/25 05:23:06;;;;;;;0.57;0.40;;;16.70;99.90;;;;;;5077637;28;20533;-74
2022/06/25 05:25:33;;;;;;;0.50;0.30;;;16.70;99.90;;;;;;5076825;28;20874;-71
2022/06/25 05:28:00;;;;;;;0.60;0.50;;;16.80;99.90;;;;;;5076022;28;20454;-72
2022/06/25 05:30:28;;;;;;;0.53;0.30;;;16.80;99.90;;;;;;5075630;28;20451;-72
2022/06/25 05:32:55;;;;;;;0.57;0.40;;;16.80;99.90;;;;;;5076161;28;20808;-72
2022/06/25 05:35:23;;;;;;;0.50;0.40;;;16.80;99.90;;;;;;5076571;28;20928;-71
2022/06/25 05:37:51;;;;;;;0.50;0.30;;;16.90;99.90;;;;;;5092900;28;20454;-72
2022/06/25 05:40:18;;;;;;;1.57;0.40;;;16.90;99.90;;;;;;5096764;28;20457;-71
2022/06/25 05:42:45;;;;;;;0.50;0.40;;;17.00;99.90;;;;;;5096215;28;20454;-72
2022/06/25 05:45:13;;;;;;;0.70;0.40;;;17.00;99.90;;;;;;5096302;28;20448;-71
2022/06/25 05:47:40;;;;;;;0.50;0.30;;;17.10;99.90;;;;;;5095581;28;20884;-71
2022/06/25 05:50:09;;;;;;;0.60;0.40;;;17.10;99.90;;;;;;5095497;28;20453;-71
2022/06/25 05:52:38;;;;;;;0.50;0.30;;;17.10;99.90;;;;;;5095732;28;20514;-70
2022/06/25 05:55:06;;;;;;;0.57;0.37;;;17.20;99.90;;;;;;5094854;28;20481;-72
2022/06/25 05:57:33;;;;;;;0.90;0.37;;;17.30;99.90;;;;;;5093036;28;20453;-71
2022/06/25 06:00:01;;;;;;;0.50;0.40;;;17.30;99.90;;;;;;5110860;28;21060;-71
2022/06/25 06:02:28;;;;;;;0.50;0.30;;;17.40;99.90;;;;;;5114992;28;20899;-70
2022/06/25 06:04:55;;;;;;;0.60;0.40;;;17.50;99.90;;;;;;5114985;28;20437;-70
2022/06/25 06:07:22;;;;;;;0.50;0.40;;;17.60;99.90;;;;;;5104078;28;20465;-71
2022/06/25 06:09:51;;;;;;;1.23;0.30;;;17.60;99.90;;;;;;5115880;28;20464;-70
2022/06/25 06:12:18;;;;;;;0.90;0.30;;;17.70;99.90;;;;;;5116142;28;20456;-70
2022/06/25 06:14:45;;;;;;;0.50;0.30;;;17.80;99.90;;;;;;5116105;28;20774;-70
2022/06/25 06:17:12;;;;;;;0.50;0.40;;;17.90;99.90;;;;;;5090622;28;20462;-71
2022/06/25 06:19:40;;;;;;;0.80;0.37;;;18.00;99.90;;;;;;5092964;28;20446;-70
2022/06/25 06:22:07;;;;;;;1.13;0.40;;;18.10;99.90;;;;;;5090553;28;20567;-70
2022/06/25 06:24:34;;;;;;;1.23;0.30;;;18.20;99.90;;;;;;5074017;28;20445;-70
2022/06/25 06:27:03;;;;;;;0.50;0.30;;;18.30;99.90;;;;;;5073289;28;20454;-71
2022/06/25 06:29:33;;;;;;;0.70;0.40;;;18.40;99.90;;;;;;5073568;28;20747;-71
2022/06/25 06:32:00;;;;;;;0.60;0.40;;;18.50;99.90;;;;;;5073891;28;20450;-70
2022/06/25 06:34:27;;;;;;;0.50;0.30;;;18.50;99.90;;;;;;5074490;28;20784;-71
2022/06/25 06:36:54;;;;;;;0.50;0.33;;;18.60;99.90;;;;;;5074583;28;20473;-70
2022/06/25 06:39:21;;;;;;;0.43;0.30;;;18.70;99.90;;;;;;5075239;28;20938;-70
2022/06/25 06:41:48;;;;;;;0.50;0.33;;;18.70;99.90;;;;;;5074790;28;20877;-70
2022/06/25 06:44:17;;;;;;;0.60;0.40;;;18.80;99.90;;;;;;5073469;28;20449;-72
2022/06/25 06:46:44;;;;;;;0.60;0.40;;;18.90;99.90;;;;;;5074791;28;20293;-71
2022/06/25 06:49:11;;;;;;;0.80;0.33;;;18.90;99.10;;;;;;5074978;28;20450;-71
2022/06/25 06:51:38;;;;;;;0.50;0.40;;;19.00;99.90;;;;;;5074001;28;20504;-71
2022/06/25 06:54:05;;;;;;;0.60;0.40;;;19.00;99.90;;;;;;5072545;28;20943;-71
2022/06/25 06:56:32;;;;;;;0.50;0.40;;;19.10;99.90;;;;;;5072442;28;20863;-71
2022/06/25 06:59:00;;;;;;;0.53;0.40;;;19.10;89.70;;;;;;5072397;28;20889;-71
2022/06/25 07:01:29;;;;;;;0.50;0.30;;;19.10;97.30;;;;;;5074446;28;20477;-70
2022/06/25 07:03:56;;;;;;;1.00;0.40;;;19.20;97.70;;;;;;5073296;28;20446;-69
2022/06/25 07:06:23;;;;;;;0.40;0.30;;;19.30;86.10;;;;;;5072598;28;20482;-69
2022/06/25 07:08:50;;;;;;;0.47;0.40;;;19.30;63.60;;;;;;5071864;28;20838;-71
2022/06/25 07:11:29;;;;;;;1.60;0.40;;;19.30;74.90;;;;;;5079256;28;20445;-70
2022/06/25 07:13:57;;;;;;;0.50;0.30;;;19.50;66.80;;;;;;5092436;28;20459;-69
2022/06/25 07:16:25;;;;;;;0.70;0.40;;;19.50;63.40;;;;;;5094887;28;20643;-70
2022/06/25 07:18:56;;;;;;;0.80;0.30;;;19.60;48.70;;;;;;5095354;28;20513;-70
2022/06/25 07:21:24;;;;;;;0.70;0.33;;;19.70;26.00;;;;;;5096111;28;20457;-70
2022/06/25 07:23:50;;;;;;;0.60;0.30;;;19.90;25.70;;;;;;5097006;28;20467;-70
2022/06/25 07:26:18;;;;;;;0.60;0.40;;;20.00;2.70;;;;;;5096870;28;20569;-70
2022/06/25 07:28:45;;;;;;;0.60;0.30;;;20.20;9.30;;;;;;5118836;28;20525;-71
2022/06/25 07:31:12;;;;;;;3.03;0.30;;;20.30;6.80;;;;;;5118732;28;20456;-70
2022/06/25 07:33:39;;;;;;;0.50;0.40;;;20.60;1.00;;;;;;5117498;28;20445;-70
2022/06/25 07:36:08;;;;;;;0.83;0.40;;;20.80;1.00;;;;;;5105200;28;20480;-71
2022/06/25 07:38:35;;;;;;;0.57;0.40;;;20.80;1.00;;;;;;5117284;28;20440;-70
2022/06/25 07:41:02;;;;;;;0.50;0.40;;;20.80;1.00;;;;;;5117763;28;20509;-71
2022/06/25 07:43:29;;;;;;;0.80;0.50;;;20.80;1.00;;;;;;5109339;28;20795;-69
2022/06/25 07:45:58;;;;;;;0.70;0.40;;;20.90;1.00;;;;;;5085210;28;20574;-70
2022/06/25 07:48:25;;;;;;;0.70;0.50;;;21.00;1.00;;;;;;5095779;28;20899;-70
2022/06/25 07:53:38;;;;;;;0.63;0.40;;;21.20;1.00;;;;;;5075775;28;20442;-70
2022/06/25 07:56:06;;;;;;;1.20;0.40;;;21.30;1.00;;;;;;5091457;28;20500;-71
2022/06/25 07:58:34;;;;;;;0.80;0.40;;;21.40;1.00;;;;;;5097353;28;21035;-70
2022/06/25 08:01:01;;;;;;;0.60;0.40;;;21.50;1.00;;;;;;5095813;28;20884;-71
2022/06/25 08:03:28;;;;;;;0.93;0.50;;;21.60;1.00;;;;;;5097289;28;20886;-70
2022/06/25 08:05:56;;;;;;;0.63;0.40;;;21.80;1.00;;;;;;5095971;28;20449;-70
2022/06/25 08:08:23;;;;;;;6.63;3.73;;;21.90;1.00;;;;;;5082658;28;20560;-70
2022/06/25 08:10:52;;;;;;;0.60;0.40;;;22.00;1.00;;;;;;5092388;28;20887;-70
2022/06/25 08:13:19;;;;;;;0.50;0.47;;;22.10;99.90;;;;;;5086508;28;20472;-70
2022/06/25 08:15:46;;;;;;;0.60;0.33;;;22.20;1.00;;;;;;5096245;28;20485;-70
2022/06/25 08:18:13;;;;;;;0.83;0.37;;;22.30;1.00;;;;;;5092220;28;20924;-71
2022/06/25 08:20:40;;;;;;;0.50;0.40;;;22.40;99.90;;;;;;5078357;28;20470;-71
2022/06/25 08:23:07;;;;;;;0.47;0.40;;;22.70;99.90;;;;;;5089213;28;20455;-71
2022/06/25 08:25:35;;;;;;;0.50;0.30;;;22.60;99.90;;;;;;5077507;28;20450;-70
2022/06/25 08:28:04;;;;;;;0.70;0.40;;;22.50;99.90;;;;;;5095129;28;20854;-72
2022/06/25 08:30:33;;;;;;;0.50;0.40;;;22.60;99.90;;;;;;5094056;28;20479;-68
2022/06/25 08:33:03;;;;;;;0.60;0.40;;;22.70;99.90;;;;;;5093973;28;20472;-69
2022/06/25 08:35:31;;;;;;;0.67;0.50;;;22.80;99.90;;;;;;5096680;28;20466;-69
2022/06/25 08:37:59;;;;;;;0.50;0.30;;;22.90;1.00;;;;;;5095570;28;20458;-70
2022/06/25 08:40:27;;;;;;;0.50;0.30;;;22.90;1.00;;;;;;5091731;28;20565;-70
2022/06/25 08:42:55;;;;;;;1.03;0.37;;;23.00;99.90;;;;;;5088585;28;20489;-70
2022/06/25 08:45:23;;;;;;;0.60;0.40;;;23.20;1.00;;;;;;5095629;28;20521;-70
2022/06/25 08:47:52;;;;;;;0.47;0.33;;;23.30;1.00;;;;;;5094576;28;20469;-70
2022/06/25 08:50:22;;;;;;;0.70;0.40;;;23.40;1.00;;;;;;5085089;28;20454;-69
2022/06/25 08:52:51;;;;;;;0.60;0.40;;;23.50;1.00;;;;;;5074401;28;20462;-70
2022/06/25 08:55:28;;;;;;;0.50;0.40;;;23.50;4.60;;;;;;5084918;28;20888;-70
2022/06/25 08:57:57;;;;;;;0.60;0.40;;;23.40;1.00;;;;;;5091924;28;20557;-70
2022/06/25 09:00:29;;;;;;;0.60;0.40;;;23.30;1.00;;;;;;5075228;28;20434;-70
2022/06/25 09:02:56;;;;;;;0.50;0.30;;;23.30;99.90;;;;;;5089862;28;20526;-72
2022/06/25 09:05:27;;;;;;;0.50;0.30;;;23.10;1.00;;;;;;5096499;28;20503;-71
2022/06/25 09:07:56;;;;;;;0.40;0.40;;;23.00;99.90;;;;;;5094601;28;20534;-71
2022/06/25 09:10:26;;;;;;;0.47;0.40;;;22.90;99.90;;;;;;5095852;28;20498;-71
2022/06/25 09:12:54;;;;;;;1.10;0.40;;;22.60;1.00;;;;;;5093967;28;20525;-72
2022/06/25 09:15:22;;;;;;;1.17;0.60;;;22.50;99.90;;;;;;5094418;28;20477;-72
2022/06/25 09:17:52;;;;;;;0.50;0.40;;;22.50;1.00;;;;;;5094816;28;20511;-72
2022/06/25 09:20:20;;;;;;;0.80;0.50;;;22.60;1.00;;;;;;5095436;28;20885;-69
2022/06/25 09:22:58;;;;;;;0.67;0.30;;;22.80;1.00;;;;;;5094127;28;20469;-72
2022/06/25 09:25:28;;;;;;;0.80;0.60;;;23.00;1.00;;;;;;5095174;28;20441;-71
2022/06/25 09:27:56;;;;;;;9.40;5.97;;;23.20;1.00;;;;;;5074173;28;20732;-72
2022/06/25 09:30:24;;;;;;;0.60;0.40;;;23.20;1.00;;;;;;5074695;28;20464;-73
2022/06/25 09:32:55;;;;;;;0.70;0.50;;;23.50;1.00;;;;;;5089506;28;20506;-70
2022/06/25 09:35:33;;;;;;;0.73;0.40;;;23.70;1.00;;;;;;5095826;28;20445;-72
2022/06/25 09:38:08;;;;;;;0.50;0.30;;;23.60;1.00;;;;;;5086794;28;20510;-72
2022/06/25 09:40:38;;;;;;;0.60;0.50;;;23.50;99.90;;;;;;5093031;28;20461;-72
2022/06/25 09:43:12;;;;;;;0.50;0.40;;;23.40;99.90;;;;;;5074805;28;20465;-72
2022/06/25 09:45:40;;;;;;;0.50;0.33;;;23.40;1.00;;;;;;5082951;28;20453;-71
2022/06/25 09:48:17;;;;;;;0.70;0.50;;;23.60;1.00;;;;;;5094311;28;20462;-72
2022/06/25 09:50:44;;;;;;;0.50;0.40;;;23.80;1.00;;;;;;5095677;28;20437;-71
2022/06/25 09:53:11;;;;;;;0.60;0.40;;;24.00;1.00;;;;;;5089656;28;20462;-71
2022/06/25 09:55:38;;;;;;;0.60;0.37;;;24.20;1.00;;;;;;5095028;28;20557;-71
2022/06/25 09:58:06;;;;;;;0.40;0.40;;;24.20;99.90;;;;;;5094172;28;20457;-71
2022/06/25 10:00:34;;;;;;;0.60;0.40;;;24.00;1.00;;;;;;5093193;28;20536;-72
2022/06/25 10:03:04;;;;;;;0.90;0.40;;;24.40;1.00;;;;;;5073727;28;20776;-71
2022/06/25 10:05:38;;;;;;;0.87;0.50;;;24.50;99.90;;;;;;5104017;28;20453;-72
2022/06/25 10:08:09;;;;;;;0.50;0.40;;;24.60;99.90;;;;;;5094803;28;20952;-72
2022/06/25 10:10:39;;;;;;;0.83;0.50;;;24.70;79.70;;;;;;5094433;28;20433;-70
2022/06/25 10:13:07;;;;;;;0.60;0.40;;;24.70;99.90;;;;;;5093578;28;20450;-71
2022/06/25 10:15:37;;;;;;;0.50;0.40;;;24.90;99.90;;;;;;5094098;28;20487;-71
2022/06/25 10:18:09;;;;;;;0.40;0.30;;;25.30;1.00;;;;;;5112121;28;20586;-71
2022/06/25 10:20:38;;;;;;;0.60;0.40;;;25.70;1.00;;;;;;5114596;28;20448;-71
2022/06/25 10:23:10;;;;;;;1.00;0.40;;;26.00;1.00;;;;;;5092246;28;20461;-72
2022/06/25 10:25:38;;;;;;;1.73;0.40;;;25.90;1.00;;;;;;5094076;28;20536;-71
2022/06/25 10:28:08;;;;;;;2.20;0.30;;;25.80;1.00;;;;;;5094010;28;20510;-71
2022/06/25 10:30:54;;;;;;;0.50;0.40;;;26.10;1.00;;;;;;5094190;28;20472;-71
2022/06/25 10:33:23;;;;;;;0.40;0.30;;;25.90;1.00;;;;;;5094408;28;20454;-70
2022/06/25 10:35:55;;;;;;;0.60;0.40;;;26.20;1.00;;;;;;5094001;28;20894;-71
2022/06/25 10:38:24;;;;;;;0.73;0.40;;;26.40;1.00;;;;;;5092896;28;20461;-71
2022/06/25 10:40:57;;;;;;;0.50;0.30;;;26.70;1.00;;;;;;5092941;28;20888;-70
2022/06/25 10:43:38;;;;;;;0.50;0.40;;;26.90;1.00;;;;;;5088575;28;20825;-71
2022/06/25 10:46:30;;;;;;;0.60;0.40;;;26.80;1.00;;;;;;5093396;28;20888;-71
2022/06/25 10:48:59;;;;;;;0.50;0.37;;;26.90;1.00;;;;;;5091479;28;20449;-71
2022/06/25 10:51:40;;;;;;;1.13;0.40;;;26.90;1.00;;;;;;5090743;28;20466;-71
2022/06/25 10:54:12;;;;;;;0.50;0.40;;;26.50;1.00;;;;;;5078156;28;20458;-71
2022/06/25 10:56:45;;;;;;;0.60;0.40;;;26.80;1.00;;;;;;5077535;28;20531;-72
2022/06/25 10:59:46;;;;;;;2.63;0.50;;;26.70;1.00;;;;;;5078411;28;20537;-72
2022/06/25 11:02:16;;;;;;;0.80;0.40;;;26.40;1.00;;;;;;5095666;28;20463;-72
2022/06/25 11:04:54;;;;;;;0.50;0.40;;;26.70;1.00;;;;;;5095207;28;20514;-72
2022/06/25 11:07:24;;;;;;;0.50;0.30;;;26.90;1.00;;;;;;5092650;28;20460;-72
2022/06/25 11:10:00;;;;;;;0.50;0.40;;;27.30;1.00;;;;;;5090646;28;20540;-71
2022/06/25 11:12:34;;;;;;;1.33;0.43;;;27.60;1.00;;;;;;5094009;28;20456;-71
2022/06/25 11:15:03;;;;;;;0.50;0.30;;;27.90;1.00;;;;;;5078090;28;20484;-72
2022/06/25 11:17:33;;;;;;;0.60;0.40;;;27.80;1.00;;;;;;5094020;28;20477;-70
2022/06/25 11:20:06;;;;;;;0.60;0.40;;;28.00;1.00;;;;;;5096810;28;20452;-72
2022/06/25 11:22:35;;;;;;;0.50;0.40;;;28.10;1.00;;;;;;5097354;28;20465;-72
2022/06/25 11:30:32;;;;;;;0.33;0.30;;;27.80;1.00;;;;;;5101936;28;20814;-72
2022/06/25 11:33:01;;;;;;;0.50;0.40;;;28.10;1.00;;;;;;5117044;28;20991;-72
2022/06/25 11:35:39;;;;;;;0.67;0.40;;;28.70;1.00;;;;;;5115965;28;20912;-72
2022/06/25 11:38:15;;;;;;;0.60;0.50;;;28.20;1.00;;;;;;5112164;28;20580;-73
2022/06/25 11:40:42;;;;;;;0.80;0.40;;;27.60;1.00;;;;;;5093795;28;20453;-73
2022/06/25 11:43:10;;;;;;;0.67;0.30;;;27.20;1.00;;;;;;5092613;28;20461;-72
2022/06/25 11:45:48;;;;;;;0.80;0.40;;;27.30;1.00;;;;;;5113367;28;20912;-72
2022/06/25 11:48:16;;;;;;;0.50;0.30;;;28.00;1.00;;;;;;5116332;28;20457;-72
2022/06/25 11:50:43;;;;;;;4.47;0.30;;;28.40;1.00;;;;;;5100626;28;20440;-72
2022/06/25 11:53:10;;;;;;;0.57;0.40;;;28.80;1.00;;;;;;5104862;28;20472;-73
2022/06/25 11:55:40;;;;;;;0.50;0.30;;;29.40;1.00;;;;;;5105445;28;20464;-72
2022/06/25 11:58:07;;;;;;;0.40;0.30;;;29.70;1.00;;;;;;5097097;28;20769;-72
2022/06/25 12:00:34;;;;;;;0.50;0.40;;;30.00;1.00;;;;;;5093489;28;20492;-73
2022/06/25 12:03:05;;;;;;;0.43;0.30;;;30.10;1.00;;;;;;5094948;28;20461;-72
2022/06/25 12:05:33;;;;;;;1.50;0.40;;;30.20;1.00;;;;;;5099857;28;20460;-72
2022/06/25 12:08:00;;;;;;;0.50;0.40;;;29.90;1.00;;;;;;5116228;28;20444;-72
2022/06/25 12:10:30;;;;;;;0.50;0.40;;;29.70;1.00;;;;;;5105457;28;21084;-73
2022/06/25 12:12:58;;;;;;;0.70;0.30;;;29.90;1.00;;;;;;5116001;28;20718;-73
2022/06/25 12:15:30;;;;;;;0.43;0.30;;;30.10;1.00;;;;;;5109398;28;20495;-71
2022/06/25 12:18:04;;;;;;;0.50;0.30;;;30.10;1.00;;;;;;5115943;28;20482;-71
2022/06/25 12:20:32;;;;;;;0.90;0.40;;;29.80;1.00;;;;;;5103679;28;20517;-73
2022/06/25 12:23:00;;;;;;;0.67;0.30;;;29.60;1.00;;;;;;5088868;28;20457;-73
2022/06/25 12:25:29;;;;;;;0.50;0.30;;;29.30;1.00;;;;;;5114226;28;20467;-72
2022/06/25 12:27:57;;;;;;;0.50;0.30;;;29.20;1.00;;;;;;5097566;28;20461;-71
2022/06/25 12:30:26;;;;;;;0.50;0.20;;;29.60;1.00;;;;;;5096043;28;20457;-72
2022/06/25 12:32:56;;;;;;;0.53;0.30;;;30.00;1.00;;;;;;5093572;28;20489;-72
2022/06/25 12:35:25;;;;;;;0.57;0.30;;;29.90;1.00;;;;;;5092876;28;20544;-73
2022/06/25 12:38:03;;;;;;;0.40;0.30;;;29.70;1.00;;;;;;5094212;28;20775;-73
2022/06/25 12:40:31;;;;;;;0.50;0.30;;;29.70;1.00;;;;;;5094215;28;20445;-72
2022/06/25 12:43:01;;;;;;;0.40;0.20;;;29.30;1.00;;;;;;5095326;28;20556;-72
2022/06/25 12:45:32;;;;;;;0.40;0.20;;;29.50;1.00;;;;;;5095813;28;20795;-72
2022/06/25 12:47:59;;;;;;;0.50;0.30;;;29.80;1.00;;;;;;5096687;28;20450;-71
2022/06/25 12:50:31;;;;;;;0.50;0.30;;;29.50;1.00;;;;;;5096540;28;20442;-72
2022/06/25 12:53:07;;;;;;;0.50;0.30;;;30.10;1.00;;;;;;5096770;28;20877;-72
2022/06/25 12:55:34;;;;;;;0.50;0.37;;;30.50;1.00;;;;;;5097416;28;20441;-71
2022/06/25 12:58:05;;;;;;;4.10;0.40;;;30.30;1.00;;;;;;5094921;28;20963;-71
2022/06/25 13:00:36;;;;;;;0.40;0.30;;;30.50;1.00;;;;;;5096264;28;20449;-72
2022/06/25 13:03:05;;;;;;;0.40;0.30;;;30.30;1.00;;;;;;5096609;28;20810;-72
2022/06/25 13:05:32;;;;;;;0.43;0.30;;;29.90;1.00;;;;;;5096503;28;20453;-72
2022/06/25 13:08:00;;;;;;;0.50;0.40;;;29.60;1.00;;;;;;5092263;28;20466;-71
2022/06/25 13:10:27;;;;;;;0.60;0.30;;;28.80;1.00;;;;;;5084180;28;20518;-72
2022/06/25 13:12:54;;;;;;;0.40;0.30;;;28.50;1.00;;;;;;5095150;28;20514;-74
2022/06/25 13:15:24;;;;;;;0.40;0.20;;;29.00;1.00;;;;;;5095761;28;20482;-71